KMLP - Mullan Pass
Updated: Fri, 15-Dec-2017 6:53am PST
Clear
Clear
 Wind from WSW
Wind: WSW at 8 mph , 13 km/h
Temperature : 27°F , -3°C
Wind Chill : 19°F , -7°C
Dew Point : 21°F , -6°C
Humidity : 80%
Barometer : 30.00 inHg , 1015.9 hPa
Clouds : Clear
Visibility : 10 miles , 16 km
2017/12/15 14:53 KMLP 151453Z AUTO 24007KT 10SM CLR M03/M06 A3000 RMK AO2 SLP193 T10281061 58020 TSNO

 

KCOE - Coeur d Alene
Updated: Fri, 15-Dec-2017 6:56am PST
Overcast
Overcast
 Wind from W
Wind: W at 3 mph , 6 km/h
Temperature : 28°F , -2°C
Dew Point : 28°F , -2°C
Humidity : 100%
Barometer : 30.17 inHg , 1021.7 hPa
Clouds : Overcast
Visibility : 10 miles , 16 km
2017/12/15 14:56 KCOE 151456Z AUTO 27003KT 10SM OVC007 M02/M02 A3017 RMK AO2 CIG 006V009 SLP259 T10171022 56013 FZRANO

 

KLWS - Lewiston
Updated: Fri, 15-Dec-2017 6:56am PST
Clear
Clear
 Wind from calm
Wind: Calm
Temperature : 28°F , -2°C
Dew Point : 27°F , -3°C
Humidity : 93%
Barometer : 30.18 inHg , 1022 hPa
Clouds : Clear
Visibility : 10 miles , 16 km
2017/12/15 14:56 KLWS 151456Z 00000KT 10SM CLR M02/M03 A3018 RMK AO2 SLP239 T10221033 58027

 

KGEG - Spokane Intl
Updated: Fri, 15-Dec-2017 7:15am PST
Mist, overcast
Mist, overcast
 Wind from WSW
Wind: WSW at 8 mph , 13 km/h
Temperature : 27°F , -3°C
Wind Chill : 19°F , -7°C
Dew Point : 27°F , -3°C
Humidity : 100%
Barometer : 30.17 inHg , 1021.7 hPa
Summary : Mist
Clouds : Overcast
Visibility : 1 mile , 2 km
2017/12/15 15:15 KGEG 151515Z 25007KT 1SM R21/P6000FT BR FEW001 BKN002 OVC008 M03/M03 A3017 RMK AO2 FZDZE15SNE15 P0000 I1000 T10281028